createdAt,value
2018-04-12T00:00:02.604Z,65.33
2018-04-12T00:01:02.518Z,65.33
2018-04-12T00:02:02.443Z,64.94
2018-04-12T00:03:02.370Z,65.14
2018-04-12T00:04:02.292Z,64.62
2018-04-12T00:05:02.204Z,64.34
2018-04-12T00:06:02.129Z,64.53
2018-04-12T00:07:02.054Z,64.05
2018-04-12T00:08:01.968Z,64.05
2018-04-12T00:09:01.894Z,64.25
2018-04-12T00:10:01.818Z,64.15
2018-04-12T00:11:01.730Z,64.34
2018-04-12T00:12:01.656Z,64.91
2018-04-12T00:13:01.579Z,64.47
2018-04-12T00:14:01.494Z,64.91
2018-04-12T00:15:01.419Z,64.91
2018-04-12T00:16:01.343Z,64.81
2018-04-12T00:17:01.255Z,64.62
2018-04-12T00:18:01.183Z,64.53
2018-04-12T00:19:01.105Z,64.56
2018-04-12T00:20:01.018Z,65.14
2018-04-12T00:21:00.945Z,64.94
2018-04-12T00:22:00.868Z,64.43
2018-04-12T00:23:00.781Z,64.43
2018-04-12T00:24:00.705Z,64.43
2018-04-12T00:25:00.631Z,64.43
2018-04-12T00:26:00.544Z,65.10
2018-04-12T00:27:00.469Z,64.94
2018-04-12T00:28:00.397Z,64.53
2018-04-12T00:29:00.306Z,64.43
2018-04-12T00:30:00.231Z,65.10
2018-04-12T00:31:00.159Z,64.81
2018-04-12T00:32:00.070Z,64.43
2018-04-12T00:32:59.995Z,64.72
2018-04-12T00:33:59.919Z,64.75
2018-04-12T00:34:59.833Z,64.91
2018-04-12T00:35:59.757Z,65.01
2018-04-12T00:36:59.681Z,64.72
2018-04-12T00:37:59.596Z,65.01
2018-04-12T00:38:59.520Z,64.53
2018-04-12T00:39:59.445Z,64.91
2018-04-12T00:40:59.358Z,65.10
2018-04-12T00:41:59.283Z,64.43
2018-04-12T00:42:59.215Z,64.53
2018-04-12T00:43:59.121Z,64.34
2018-04-12T00:44:59.046Z,64.25
2018-04-12T00:45:58.971Z,64.43
2018-04-12T00:46:58.883Z,64.34
2018-04-12T00:47:58.808Z,65.01
2018-04-12T00:48:58.734Z,64.43
2018-04-12T00:49:58.658Z,64.34
2018-04-12T00:50:58.571Z,64.15
2018-04-12T00:51:58.496Z,64.34
2018-04-12T00:52:58.409Z,64.34
2018-04-12T00:53:58.333Z,64.43
2018-04-12T00:54:58.262Z,64.43
2018-04-12T00:55:58.173Z,64.15
2018-04-12T00:56:58.097Z,64.43
2018-04-12T00:57:58.022Z,63.86
2018-04-12T00:58:57.935Z,64.25
2018-04-12T00:59:57.859Z,64.05
2018-04-12T01:00:57.785Z,63.48
2018-04-12T01:01:57.698Z,63.86
2018-04-12T01:02:57.624Z,63.96
2018-04-12T01:03:57.549Z,63.86
2018-04-12T01:04:57.461Z,63.57
2018-04-12T01:05:57.387Z,64.05
2018-04-12T01:06:57.311Z,63.29
2018-04-12T01:07:57.225Z,64.05
2018-04-12T01:08:57.153Z,63.96
2018-04-12T01:09:57.078Z,64.05
2018-04-12T01:10:56.988Z,64.05
2018-04-12T01:11:56.912Z,63.76
2018-04-12T01:12:56.850Z,63.48
2018-04-12T01:13:56.751Z,63.48
2018-04-12T01:14:56.682Z,63.35
2018-04-12T01:15:56.601Z,63.07
2018-04-12T01:16:56.512Z,63.29
2018-04-12T01:17:56.450Z,63.35
2018-04-12T01:18:56.363Z,63.16
2018-04-12T01:19:56.281Z,63.07
2018-04-12T01:20:56.201Z,62.88
2018-04-12T01:21:56.130Z,63.07
2018-04-12T01:22:56.051Z,62.97
2018-04-12T01:23:55.963Z,63.16
2018-04-12T01:24:55.889Z,62.97
2018-04-12T01:25:55.801Z,63.07
2018-04-12T01:26:55.726Z,63.16
2018-04-12T01:27:55.652Z,62.78
2018-04-12T01:28:55.563Z,63.35
2018-04-12T01:29:55.488Z,63.26
2018-04-12T01:30:55.402Z,62.78
2018-04-12T01:31:55.327Z,63.07
2018-04-12T01:32:55.256Z,63.35
2018-04-12T01:33:55.164Z,63.26
2018-04-12T01:34:55.090Z,62.88
2018-04-12T01:35:55.015Z,62.88
2018-04-12T01:36:54.929Z,63.35
2018-04-12T01:37:54.853Z,63.35
2018-04-12T01:38:54.782Z,62.68
2018-04-12T01:39:54.689Z,63.26
2018-04-12T01:40:54.614Z,62.88
2018-04-12T01:41:54.539Z,62.49
2018-04-12T01:42:54.453Z,63.45
2018-04-12T01:43:54.378Z,62.21
2018-04-12T01:44:54.292Z,62.68
2018-04-12T01:45:54.214Z,63.26
2018-04-12T01:46:54.142Z,62.21
2018-04-12T01:47:54.053Z,62.88
2018-04-12T01:48:53.978Z,62.78
2018-04-12T01:49:53.904Z,62.59
2018-04-12T01:50:53.815Z,62.59
2018-04-12T01:51:53.741Z,62.40
2018-04-12T01:52:53.677Z,62.30
2018-04-12T01:53:53.579Z,62.11
2018-04-12T01:54:53.505Z,62.59
2018-04-12T01:55:53.429Z,62.88
2018-04-12T01:56:53.341Z,62.49
2018-04-12T01:57:53.280Z,62.68
2018-04-12T01:58:53.195Z,62.59
2018-04-12T01:59:53.105Z,62.78
2018-04-12T02:00:53.034Z,62.59
2018-04-12T02:01:52.953Z,62.11
2018-04-12T02:02:52.880Z,62.49
2018-04-12T02:03:52.792Z,62.21
2018-04-12T02:04:52.715Z,62.30
2018-04-12T02:05:52.630Z,61.92
2018-04-12T02:06:52.556Z,62.30
2018-04-12T02:07:52.480Z,62.59
2018-04-12T02:08:52.392Z,62.59
2018-04-12T02:09:52.317Z,62.11
2018-04-12T02:10:52.242Z,62.21
2018-04-12T02:11:52.156Z,62.78
2018-04-12T02:12:52.081Z,62.49
2018-04-12T02:13:51.993Z,62.49
2018-04-12T02:14:51.918Z,62.49
2018-04-12T02:15:51.843Z,62.49
2018-04-12T02:16:51.760Z,61.92
2018-04-12T02:17:51.682Z,62.11
2018-04-12T02:18:51.597Z,61.83
2018-04-12T02:19:51.518Z,62.11
2018-04-12T02:20:51.445Z,62.02
2018-04-12T02:21:51.358Z,62.11
2018-04-12T02:22:51.348Z,61.92
2018-04-12T02:23:51.207Z,61.92
2018-04-12T02:24:51.121Z,62.18
2018-04-12T02:25:51.045Z,62.02
2018-04-12T02:26:50.969Z,62.21
2018-04-12T02:27:50.885Z,62.08
2018-04-12T02:28:50.813Z,61.70
2018-04-12T02:29:50.733Z,61.89
2018-04-12T02:30:50.647Z,61.70
2018-04-12T02:31:50.569Z,61.80
2018-04-12T02:32:50.486Z,61.99
2018-04-12T02:33:50.410Z,61.80
2018-04-12T02:34:50.337Z,61.60
2018-04-12T02:35:50.245Z,61.80
2018-04-12T02:36:50.171Z,61.51
2018-04-12T02:37:50.095Z,61.04
2018-04-12T02:38:50.008Z,61.80
2018-04-12T02:39:49.934Z,61.80
2018-04-12T02:40:49.858Z,61.13
2018-04-12T02:41:49.771Z,60.94
2018-04-12T02:42:49.695Z,61.13
2018-04-12T02:43:49.609Z,61.04
2018-04-12T02:44:49.534Z,61.04
2018-04-12T02:45:49.460Z,61.04
2018-04-12T02:46:49.374Z,60.94
2018-04-12T02:47:49.297Z,60.75
2018-04-12T02:48:49.222Z,61.13
2018-04-12T02:49:49.135Z,60.65
2018-04-12T02:50:49.064Z,61.13
2018-04-12T02:51:48.974Z,60.75
2018-04-12T02:52:48.898Z,60.84
2018-04-12T02:53:48.824Z,60.94
2018-04-12T02:54:48.737Z,61.13
2018-04-12T02:55:48.668Z,61.13
2018-04-12T02:56:48.587Z,61.22
2018-04-12T02:57:48.500Z,61.13
2018-04-12T02:58:48.423Z,61.13
2018-04-12T02:59:48.337Z,60.84
2018-04-12T03:00:48.261Z,60.75
2018-04-12T03:01:48.187Z,60.75
2018-04-12T03:02:48.098Z,60.36
2018-04-12T03:03:48.023Z,60.84
2018-04-12T03:04:47.949Z,60.36
2018-04-12T03:05:47.866Z,60.46
2018-04-12T03:06:47.788Z,60.46
2018-04-12T03:07:47.702Z,60.27
2018-04-12T03:08:47.624Z,60.27
2018-04-12T03:09:47.549Z,59.99
2018-04-12T03:10:47.463Z,60.27
2018-04-12T03:11:47.387Z,60.17
2018-04-12T03:12:47.313Z,59.99
2018-04-12T03:13:47.224Z,59.89
2018-04-12T03:14:47.149Z,59.89
2018-04-12T03:15:47.063Z,59.99
2018-04-12T03:16:46.988Z,59.70
2018-04-12T03:17:46.913Z,59.60
2018-04-12T03:18:46.825Z,59.89
2018-04-12T03:19:46.750Z,59.70
2018-04-12T03:20:46.664Z,60.17
2018-04-12T03:21:46.589Z,60.27
2018-04-12T03:22:46.513Z,59.89
2018-04-12T03:23:46.425Z,59.89
2018-04-12T03:24:46.350Z,60.08
2018-04-12T03:25:46.275Z,59.70
2018-04-12T03:26:46.189Z,59.89
2018-04-12T03:27:46.123Z,59.31
2018-04-12T03:28:46.026Z,59.22
2018-04-12T03:29:45.953Z,59.67
2018-04-12T03:30:45.881Z,58.94
2018-04-12T03:31:45.792Z,59.00
2018-04-12T03:32:45.714Z,58.94
2018-04-12T03:33:45.628Z,59.03
2018-04-12T03:34:45.551Z,59.12
2018-04-12T03:35:45.476Z,59.22
2018-04-12T03:36:45.389Z,59.28
2018-04-12T03:37:45.314Z,59.51
2018-04-12T03:38:45.239Z,59.28
2018-04-12T03:39:45.153Z,59.19
2018-04-12T03:40:45.076Z,59.31
2018-04-12T03:41:44.990Z,59.19
2018-04-12T03:42:44.915Z,59.41
2018-04-12T03:43:44.840Z,59.28
2018-04-12T03:44:44.752Z,59.31
2018-04-12T03:45:44.677Z,59.31
2018-04-12T03:46:44.590Z,59.41
2018-04-12T03:47:44.515Z,59.51
2018-04-12T03:48:44.457Z,59.41
2018-04-12T03:49:44.371Z,59.12
2018-04-12T03:50:44.280Z,59.31
2018-04-12T03:51:44.202Z,58.81
2018-04-12T03:52:44.116Z,58.62
2018-04-12T03:53:44.041Z,58.81
2018-04-12T03:54:43.954Z,58.75
2018-04-12T03:55:43.878Z,58.91
2018-04-12T03:56:43.803Z,58.84
2018-04-12T03:57:43.717Z,58.75
2018-04-12T03:58:43.642Z,58.75
2018-04-12T03:59:43.566Z,58.52
2018-04-12T04:00:43.479Z,58.84
2018-04-12T04:01:43.470Z,58.84
2018-04-12T04:02:43.321Z,58.62
2018-04-12T04:03:43.243Z,58.81
2018-04-12T04:04:43.155Z,58.91
2018-04-12T04:05:43.079Z,58.33
2018-04-12T04:06:43.004Z,58.33
2018-04-12T04:07:42.919Z,57.86
2018-04-12T04:08:42.842Z,57.86
2018-04-12T04:09:42.756Z,57.86
2018-04-12T04:10:42.679Z,58.72
2018-04-12T04:11:42.604Z,58.72
2018-04-12T04:12:42.519Z,58.72
2018-04-12T04:13:42.444Z,58.75
2018-04-12T04:14:42.368Z,58.65
2018-04-12T04:15:42.280Z,58.36
2018-04-12T04:16:42.205Z,58.24
2018-04-12T04:17:42.129Z,58.04
2018-04-12T04:18:42.043Z,58.04
2018-04-12T04:19:41.968Z,58.14
2018-04-12T04:20:41.884Z,58.14
2018-04-12T04:21:41.805Z,58.14
2018-04-12T04:22:41.730Z,57.76
2018-04-12T04:23:41.644Z,58.26
2018-04-12T04:24:41.569Z,57.95
2018-04-12T04:25:41.482Z,58.24
2018-04-12T04:26:41.406Z,58.81
2018-04-12T04:27:41.331Z,58.04
2018-04-12T04:28:41.244Z,58.65
2018-04-12T04:29:41.170Z,58.81
2018-04-12T04:30:41.095Z,58.81
2018-04-12T04:31:41.007Z,58.81
2018-04-12T04:32:40.931Z,58.65
2018-04-12T04:33:40.850Z,58.75
2018-04-12T04:34:40.771Z,58.72
2018-04-12T04:35:40.682Z,58.62
2018-04-12T04:36:40.609Z,58.72
2018-04-12T04:37:40.534Z,58.81
2018-04-12T04:38:40.446Z,59.00
2018-04-12T04:39:40.371Z,58.72
2018-04-12T04:40:40.285Z,58.72
2018-04-12T04:41:40.209Z,58.84
2018-04-12T04:42:40.122Z,58.81
2018-04-12T04:43:40.047Z,59.19
2018-04-12T04:44:39.973Z,58.81
2018-04-12T04:45:39.885Z,58.72
2018-04-12T04:46:39.808Z,58.72
2018-04-12T04:47:39.721Z,59.09
2018-04-12T04:48:39.647Z,58.81
2018-04-12T04:49:39.572Z,58.81
2018-04-12T04:50:39.484Z,58.52
2018-04-12T04:51:39.409Z,58.62
2018-04-12T04:52:39.333Z,58.62
2018-04-12T04:53:39.251Z,58.81
2018-04-12T04:54:39.177Z,59.19
2018-04-12T04:55:39.089Z,58.72
2018-04-12T04:56:39.016Z,59.00
2018-04-12T04:57:38.923Z,58.62
2018-04-12T04:58:38.849Z,58.81
2018-04-12T04:59:38.775Z,58.91
2018-04-12T05:00:38.685Z,59.19
2018-04-12T05:01:38.615Z,59.19
2018-04-12T05:02:38.524Z,59.09
2018-04-12T05:03:38.448Z,59.38
2018-04-12T05:04:38.373Z,59.48
2018-04-12T05:05:38.286Z,59.00
2018-04-12T05:06:38.211Z,59.38
2018-04-12T05:07:38.136Z,59.48
2018-04-12T05:08:38.050Z,59.28
2018-04-12T05:09:37.974Z,59.67
2018-04-12T05:10:37.886Z,59.89
2018-04-12T05:11:37.812Z,59.89
2018-04-12T05:12:37.752Z,60.27
2018-04-12T05:13:37.649Z,61.04
2018-04-12T05:14:37.577Z,61.04
2018-04-12T05:15:37.557Z,60.94
2018-04-12T05:16:37.411Z,61.04
2018-04-12T05:17:37.338Z,61.04
2018-04-12T05:18:37.250Z,61.04
2018-04-12T05:19:37.179Z,61.60
2018-04-12T05:20:37.089Z,61.63
2018-04-12T05:21:37.011Z,62.11
2018-04-12T05:22:36.938Z,61.83
2018-04-12T05:23:36.851Z,62.21
2018-04-12T05:24:36.776Z,62.59
2018-04-12T05:25:36.700Z,62.30
2018-04-12T05:26:36.612Z,62.21
2018-04-12T05:27:36.550Z,62.40
2018-04-12T05:28:36.462Z,62.02
2018-04-12T05:29:36.379Z,62.30
2018-04-12T05:30:36.301Z,62.11
2018-04-12T05:31:36.213Z,62.21
2018-04-12T05:32:36.151Z,62.02
2018-04-12T05:33:36.063Z,62.78
2018-04-12T05:34:35.984Z,62.88
2018-04-12T05:35:35.901Z,62.21
2018-04-12T05:36:35.829Z,62.30
2018-04-12T05:37:35.751Z,62.30
2018-04-12T05:38:35.663Z,62.30
2018-04-12T05:39:35.589Z,61.63
2018-04-12T05:40:35.502Z,62.02
2018-04-12T05:41:35.427Z,62.49
2018-04-12T05:42:35.352Z,62.68
2018-04-12T05:43:35.264Z,62.02
2018-04-12T05:44:35.189Z,61.92
2018-04-12T05:45:35.102Z,62.11
2018-04-12T05:46:35.031Z,62.88
2018-04-12T05:47:34.952Z,62.68
2018-04-12T05:48:34.864Z,62.59
2018-04-12T05:49:34.790Z,62.11
2018-04-12T05:50:34.714Z,62.78
2018-04-12T05:51:34.631Z,62.59
2018-04-12T05:52:34.552Z,62.68
2018-04-12T05:53:34.478Z,63.26
2018-04-12T05:54:34.389Z,63.07
2018-04-12T05:55:34.315Z,63.07
2018-04-12T05:56:34.239Z,62.78
2018-04-12T05:57:34.153Z,62.97
2018-04-12T05:58:34.078Z,63.16
2018-04-12T05:59:34.003Z,63.16
2018-04-12T06:00:33.915Z,63.07
2018-04-12T06:01:33.853Z,63.92
2018-04-12T06:02:33.766Z,63.16
2018-04-12T06:03:33.685Z,63.83
2018-04-12T06:04:33.603Z,62.78
2018-04-12T06:05:33.528Z,63.92
2018-04-12T06:06:33.440Z,64.43
2018-04-12T06:07:33.366Z,63.16
2018-04-12T06:08:33.291Z,64.31
2018-04-12T06:09:33.204Z,64.72
2018-04-12T06:10:33.129Z,65.77
2018-04-12T06:11:33.056Z,65.61
2018-04-12T06:12:32.966Z,66.00
2018-04-12T06:13:32.891Z,66.47
2018-04-12T06:14:32.818Z,66.66
2018-04-12T06:15:32.742Z,67.52
2018-04-12T06:16:32.655Z,66.19
2018-04-12T06:17:32.582Z,65.80
2018-04-12T06:18:32.496Z,65.42
2018-04-12T06:19:32.418Z,65.90
2018-04-12T06:20:32.345Z,65.61
2018-04-12T06:21:32.268Z,66.38
2018-04-12T06:22:32.183Z,66.38
2018-04-12T06:23:32.106Z,66.00
2018-04-12T06:24:32.033Z,65.90
2018-04-12T06:25:31.945Z,66.09
2018-04-12T06:26:31.871Z,66.19
2018-04-12T06:27:31.794Z,66.00
2018-04-12T06:28:31.773Z,66.66
2018-04-12T06:29:31.643Z,67.05
2018-04-12T06:30:31.557Z,66.66
2018-04-12T06:31:31.483Z,66.89
2018-04-12T06:32:31.407Z,66.99
2018-04-12T06:33:31.319Z,67.81
2018-04-12T06:34:31.245Z,67.05
2018-04-12T06:35:31.170Z,66.56
2018-04-12T06:36:31.094Z,67.05
2018-04-12T06:37:31.009Z,67.43
2018-04-12T06:38:30.933Z,66.85
2018-04-12T06:39:30.862Z,67.71
2018-04-12T06:40:30.773Z,66.95
2018-04-12T06:41:30.698Z,67.05
2018-04-12T06:42:30.633Z,66.47
2018-04-12T06:43:30.544Z,66.79
2018-04-12T06:44:30.463Z,67.14
2018-04-12T06:45:30.382Z,67.27
2018-04-12T06:46:30.312Z,68.04
2018-04-12T06:47:30.233Z,67.36
2018-04-12T06:48:30.147Z,66.99
2018-04-12T06:49:30.070Z,67.84
2018-04-12T06:50:29.995Z,66.70
2018-04-12T06:51:29.919Z,67.52
2018-04-12T06:52:29.834Z,66.95
2018-04-12T06:53:29.759Z,67.24
2018-04-12T06:54:29.683Z,67.24
2018-04-12T06:55:29.608Z,67.55
2018-04-12T06:56:29.524Z,67.36
2018-04-12T06:57:29.445Z,67.14
2018-04-12T06:58:29.384Z,67.91
2018-04-12T06:59:29.296Z,67.33
2018-04-12T07:00:29.220Z,67.46
2018-04-12T07:01:29.133Z,67.75
2018-04-12T07:02:29.059Z,67.94
2018-04-12T07:03:28.983Z,68.51
2018-04-12T07:04:28.908Z,68.13
2018-04-12T07:05:28.821Z,68.23
2018-04-12T07:06:28.745Z,67.55
2018-04-12T07:07:28.670Z,68.23
2018-04-12T07:08:28.595Z,68.23
2018-04-12T07:09:28.520Z,67.94
2018-04-12T07:10:28.434Z,68.32
2018-04-12T07:11:28.359Z,68.23
2018-04-12T07:12:28.285Z,68.04
2018-04-12T07:13:28.209Z,68.64
2018-04-12T07:14:28.124Z,68.93
2018-04-12T07:15:28.045Z,69.12
2018-04-12T07:16:27.970Z,68.74
2018-04-12T07:17:27.895Z,68.90
2018-04-12T07:18:27.812Z,68.74
2018-04-12T07:19:27.734Z,69.31
2018-04-12T07:20:27.660Z,68.55
2018-04-12T07:21:27.584Z,68.74
2018-04-12T07:22:27.497Z,69.27
2018-04-12T07:23:27.421Z,68.84
2018-04-12T07:24:27.362Z,68.74
2018-04-12T07:25:27.272Z,68.74
2018-04-12T07:26:27.196Z,69.27
2018-04-12T07:27:27.116Z,68.70
2018-04-12T07:28:27.035Z,68.84
2018-04-12T07:29:26.960Z,69.31
2018-04-12T07:30:26.884Z,69.12
2018-04-12T07:31:26.809Z,68.84
2018-04-12T07:32:26.723Z,69.21
2018-04-12T07:33:26.647Z,69.41
2018-04-12T07:34:26.572Z,69.44
2018-04-12T07:35:26.511Z,69.54
2018-04-12T07:36:26.422Z,71.26
2018-04-12T07:37:26.347Z,70.78
2018-04-12T07:38:26.260Z,70.68
2018-04-12T07:39:26.192Z,70.72
2018-04-12T07:40:26.111Z,70.91
2018-04-12T07:41:26.039Z,70.59
2018-04-12T07:42:25.961Z,71.39
2018-04-12T07:43:25.873Z,71.01
2018-04-12T07:44:25.800Z,70.53
2018-04-12T07:45:25.723Z,71.11
2018-04-12T07:46:25.648Z,71.30
2018-04-12T07:47:25.573Z,71.52
2018-04-12T07:48:25.499Z,72.38
2018-04-12T07:49:25.424Z,72.16
2018-04-12T07:50:25.338Z,72.29
2018-04-12T07:51:25.267Z,72.67
2018-04-12T07:52:25.187Z,73.44
2018-04-12T07:53:25.113Z,72.96
2018-04-12T07:54:25.042Z,74.01
2018-04-12T07:55:24.995Z,75.20
2018-04-12T07:56:24.889Z,77.25
2018-04-12T07:57:24.814Z,77.92
2018-04-12T07:58:24.737Z,78.02
2018-04-12T07:59:24.655Z,78.44
2018-04-12T08:00:24.578Z,79.82
2018-04-12T08:01:24.500Z,80.30
2018-04-12T08:02:24.426Z,80.30
2018-04-12T08:03:24.350Z,79.72
2018-04-12T08:04:24.276Z,79.53
2018-04-12T08:05:24.201Z,79.59
2018-04-12T08:06:24.128Z,81.26
2018-04-12T08:07:24.050Z,80.07
2018-04-12T08:08:23.989Z,79.21
2018-04-12T08:09:23.901Z,79.39
2018-04-12T08:10:23.827Z,80.16
2018-04-12T08:11:23.751Z,79.97
2018-04-12T08:12:23.677Z,80.16
2018-04-12T08:13:23.601Z,80.45
2018-04-12T08:14:23.527Z,80.16
2018-04-12T08:15:23.452Z,80.97
2018-04-12T08:16:23.376Z,81.26
2018-04-12T08:17:23.302Z,81.41
2018-04-12T08:18:23.227Z,80.55
2018-04-12T08:19:23.153Z,81.16
2018-04-12T08:20:23.091Z,80.97
2018-04-12T08:21:23.016Z,81.26
2018-04-12T08:22:22.942Z,79.91
2018-04-12T08:23:22.874Z,80.58
2018-04-12T08:24:22.791Z,80.01
2018-04-12T08:25:22.717Z,81.54
2018-04-12T08:26:22.641Z,81.60
2018-04-12T08:27:22.567Z,81.02
2018-04-12T08:28:22.492Z,80.55
2018-04-12T08:29:22.417Z,80.74
2018-04-12T08:30:22.342Z,81.26
2018-04-12T08:31:22.269Z,81.16
2018-04-12T08:32:22.192Z,81.15
2018-04-12T08:33:22.122Z,80.01
2018-04-12T08:34:22.043Z,80.78
2018-04-12T08:35:21.968Z,80.30
2018-04-12T08:36:21.893Z,80.97
2018-04-12T08:37:21.829Z,81.07
2018-04-12T08:38:21.755Z,80.58
2018-04-12T08:39:21.681Z,80.91
2018-04-12T08:40:21.605Z,80.96
2018-04-12T08:41:21.531Z,79.80
2018-04-12T08:42:21.455Z,79.42
2018-04-12T08:43:21.380Z,78.94
2018-04-12T08:44:21.305Z,80.34
2018-04-12T08:45:21.230Z,80.15
2018-04-12T08:46:21.156Z,80.49
2018-04-12T08:47:21.082Z,81.01
2018-04-12T08:48:21.020Z,80.09
2018-04-12T08:49:20.944Z,81.35
2018-04-12T08:50:20.869Z,81.07
2018-04-12T08:51:20.794Z,81.49
2018-04-12T08:52:20.720Z,81.35
2018-04-12T08:53:20.645Z,81.07
2018-04-12T08:54:20.583Z,81.26
2018-04-12T08:55:20.495Z,81.31
2018-04-12T08:56:20.432Z,81.41
2018-04-12T08:57:20.357Z,81.41
2018-04-12T08:58:20.282Z,80.74
2018-04-12T08:59:20.210Z,80.45
2018-04-12T09:00:20.132Z,81.51
2018-04-12T09:01:20.099Z,81.51
2018-04-12T09:02:19.987Z,81.70
2018-04-12T09:03:19.908Z,81.31
2018-04-12T09:04:19.833Z,80.64
2018-04-12T09:05:19.772Z,81.60
2018-04-12T09:06:19.684Z,81.45
2018-04-12T09:07:19.609Z,81.35
2018-04-12T09:08:19.535Z,81.20
2018-04-12T09:09:19.475Z,81.72
2018-04-12T09:10:19.401Z,80.66
2018-04-12T09:11:19.326Z,81.30
2018-04-12T09:12:19.246Z,80.91
2018-04-12T09:13:19.172Z,81.10
2018-04-12T09:14:19.099Z,80.76
2018-04-12T09:15:19.023Z,80.96
2018-04-12T09:16:18.947Z,81.43
2018-04-12T09:17:18.873Z,80.22
2018-04-12T09:18:18.798Z,79.94
2018-04-12T09:19:18.723Z,80.28
2018-04-12T09:20:18.649Z,80.96
2018-04-12T09:21:18.574Z,80.09
2018-04-12T09:22:18.500Z,80.66
2018-04-12T09:23:18.436Z,80.71
2018-04-12T09:24:18.397Z,79.02
2018-04-12T09:25:18.286Z,77.58
2018-04-12T09:26:18.211Z,76.36
2018-04-12T09:27:18.135Z,74.34
2018-04-12T09:28:18.061Z,74.25
2018-04-12T09:29:17.987Z,75.98
2018-04-12T09:30:17.912Z,74.19
2018-04-12T09:31:17.837Z,72.71
2018-04-12T09:32:17.764Z,73.99
2018-04-12T09:33:17.763Z,75.44
2018-04-12T09:34:17.627Z,74.44
2018-04-12T09:35:17.550Z,74.82
2018-04-12T09:36:17.476Z,77.38
2018-04-12T09:37:17.402Z,78.11
2018-04-12T09:38:17.326Z,78.88
2018-04-12T09:39:17.262Z,79.84
2018-04-12T09:40:17.201Z,79.42
2018-04-12T09:41:17.119Z,79.80
2018-04-12T09:42:17.038Z,79.65
2018-04-12T09:43:16.968Z,79.27
2018-04-12T09:44:16.890Z,78.25
2018-04-12T09:45:16.813Z,78.15
2018-04-12T09:46:16.771Z,77.86
2018-04-12T09:47:16.677Z,77.33
2018-04-12T09:48:16.602Z,77.00
2018-04-12T09:49:16.540Z,77.19
2018-04-12T09:50:16.458Z,76.81
2018-04-12T09:51:16.377Z,77.00
2018-04-12T09:52:16.303Z,77.00
2018-04-12T09:53:16.228Z,77.48
2018-04-12T09:54:16.153Z,77.96
2018-04-12T09:55:16.090Z,77.76
2018-04-12T09:56:16.015Z,77.38
2018-04-12T09:57:15.940Z,77.48
2018-04-12T09:58:15.865Z,78.06
2018-04-12T09:59:15.790Z,76.17
2018-04-12T10:00:15.715Z,75.24
2018-04-12T10:01:15.654Z,73.96
2018-04-12T10:02:15.565Z,73.38
2018-04-12T10:03:15.491Z,73.90
2018-04-12T10:04:15.430Z,73.03
2018-04-12T10:05:15.356Z,71.78
2018-04-12T10:06:15.286Z,71.88
2018-04-12T10:07:15.206Z,71.88
2018-04-12T10:08:15.129Z,76.34
2018-04-12T10:09:15.054Z,70.18
2018-04-12T10:10:14.983Z,71.62
2018-04-12T10:11:14.916Z,70.12
2018-04-12T10:12:14.858Z,70.56
2018-04-12T10:13:14.766Z,70.28
2018-04-12T10:14:14.691Z,69.12
2018-04-12T10:15:14.617Z,69.22
2018-04-12T10:16:14.555Z,68.64
2018-04-12T10:17:14.484Z,69.60
2018-04-12T10:18:14.406Z,70.05
2018-04-12T10:19:14.331Z,71.88
2018-04-12T10:20:14.256Z,71.30
2018-04-12T10:21:14.182Z,70.72
2018-04-12T10:22:14.118Z,71.97
2018-04-12T10:23:14.043Z,73.22
2018-04-12T10:24:13.969Z,72.74
2018-04-12T10:25:13.893Z,72.55
2018-04-12T10:26:13.828Z,73.61
2018-04-12T10:27:13.756Z,73.99
2018-04-12T10:28:13.682Z,75.15
2018-04-12T10:29:13.607Z,73.13
2018-04-12T10:30:13.543Z,73.42
2018-04-12T10:31:13.457Z,71.88
2018-04-12T10:32:13.397Z,72.07
2018-04-12T10:33:13.319Z,70.15
2018-04-12T10:34:13.247Z,71.40
2018-04-12T10:35:13.170Z,70.34
2018-04-12T10:36:13.095Z,70.15
2018-04-12T10:37:13.034Z,69.67
2018-04-12T10:38:12.961Z,69.70
2018-04-12T10:39:12.884Z,68.06
2018-04-12T10:40:12.807Z,68.35
2018-04-12T10:41:12.734Z,67.68
2018-04-12T10:42:12.663Z,67.68
2018-04-12T10:43:12.595Z,67.39
2018-04-12T10:44:12.534Z,67.87
2018-04-12T10:45:12.445Z,67.49
2018-04-12T10:46:12.372Z,67.00
2018-04-12T10:47:12.295Z,67.68
2018-04-12T10:48:12.234Z,67.29
2018-04-12T10:49:12.163Z,68.38
2018-04-12T10:50:12.088Z,66.94
2018-04-12T10:51:12.009Z,64.73
2018-04-12T10:52:11.934Z,64.82
2018-04-12T10:53:11.871Z,64.43
2018-04-12T10:54:11.797Z,64.34
2018-04-12T10:55:11.721Z,64.37
2018-04-12T10:56:11.664Z,62.63
2018-04-12T10:57:11.571Z,63.50
2018-04-12T10:58:11.497Z,62.09
2018-04-12T10:59:11.436Z,61.10
2018-04-12T11:00:11.361Z,60.45
2018-04-12T11:01:11.286Z,60.26
2018-04-12T11:02:11.209Z,59.42
2018-04-12T11:03:11.148Z,59.13
2018-04-12T11:04:11.072Z,57.39
2018-04-12T11:05:11.003Z,56.39
2018-04-12T11:06:10.935Z,54.58
2018-04-12T11:07:10.865Z,53.47
2018-04-12T11:08:10.785Z,52.44
2018-04-12T11:09:10.722Z,52.24
2018-04-12T11:10:10.647Z,52.14
2018-04-12T11:11:10.586Z,51.25
2018-04-12T11:12:10.511Z,51.35
2018-04-12T11:13:10.448Z,53.23
2018-04-12T11:14:10.373Z,54.07
2018-04-12T11:15:10.311Z,53.03
2018-04-12T11:16:10.239Z,52.24
2018-04-12T11:17:10.173Z,50.89
2018-04-12T11:18:10.101Z,50.12
2018-04-12T11:19:10.026Z,50.24
2018-04-12T11:20:09.961Z,48.03
2018-04-12T11:21:09.957Z,48.71
2018-04-12T11:22:09.823Z,46.53
2018-04-12T11:23:09.761Z,46.51
2018-04-12T11:24:09.688Z,46.29
2018-04-12T11:25:09.637Z,46.19
2018-04-12T11:26:09.562Z,45.83
2018-04-12T11:27:09.542Z,45.42
2018-04-12T11:28:09.438Z,45.44
2018-04-12T11:29:09.362Z,44.37
2018-04-12T11:30:09.299Z,44.98
2018-04-12T11:31:09.238Z,44.67
2018-04-12T11:32:09.162Z,45.61
2018-04-12T11:33:09.122Z,45.32
2018-04-12T11:34:09.054Z,45.65
2018-04-12T11:35:08.991Z,44.98
2018-04-12T11:36:08.899Z,44.93
2018-04-12T11:37:08.837Z,46.19
2018-04-12T11:38:08.763Z,45.73
2018-04-12T11:39:08.699Z,44.47
2018-04-12T11:40:08.637Z,44.93
2018-04-12T11:41:08.577Z,44.49
2018-04-12T11:42:08.500Z,44.54
2018-04-12T11:43:08.439Z,45.22
2018-04-12T11:44:08.375Z,45.59
2018-04-12T11:45:08.313Z,45.49
2018-04-12T11:46:08.238Z,45.22
2018-04-12T11:47:08.176Z,44.27
2018-04-12T11:48:08.114Z,43.68
2018-04-12T11:49:08.076Z,43.79
2018-04-12T11:50:07.978Z,43.38
2018-04-12T11:51:07.915Z,44.27
2018-04-12T11:52:07.852Z,44.20
2018-04-12T11:53:07.790Z,44.16
2018-04-12T11:54:07.727Z,45.01
2018-04-12T11:55:07.653Z,44.45
2018-04-12T11:56:07.606Z,43.89
2018-04-12T11:57:07.528Z,43.21
2018-04-12T11:58:07.465Z,43.21
2018-04-12T11:59:07.392Z,42.85
2018-04-12T12:00:07.328Z,42.19
2018-04-12T12:01:07.268Z,42.29
2018-04-12T12:02:07.203Z,42.72
2018-04-12T12:03:07.128Z,42.55
2018-04-12T12:04:07.066Z,42.14
2018-04-12T12:05:07.003Z,42.21
2018-04-12T12:06:06.942Z,40.83
2018-04-12T12:07:06.878Z,40.73
2018-04-12T12:08:06.804Z,41.66
2018-04-12T12:09:06.742Z,42.80
2018-04-12T12:10:06.681Z,43.37
2018-04-12T12:11:06.617Z,43.38
2018-04-12T12:12:06.542Z,42.72
2018-04-12T12:13:06.479Z,43.19
2018-04-12T12:14:06.420Z,43.19
2018-04-12T12:15:06.354Z,43.38
2018-04-12T12:16:06.280Z,43.29
2018-04-12T12:17:06.218Z,43.41
2018-04-12T12:18:06.155Z,41.88
2018-04-12T12:19:06.100Z,42.24
2018-04-12T12:20:06.030Z,42.72
2018-04-12T12:21:05.971Z,42.17
2018-04-12T12:22:05.897Z,41.78
2018-04-12T12:23:05.834Z,41.70
2018-04-12T12:24:05.769Z,41.82
2018-04-12T12:25:05.695Z,41.16
2018-04-12T12:26:05.631Z,39.34
2018-04-12T12:27:05.570Z,39.49
2018-04-12T12:28:05.512Z,40.25
2018-04-12T12:29:05.433Z,40.42
2018-04-12T12:30:05.370Z,40.25
2018-04-12T12:31:05.307Z,40.11
2018-04-12T12:32:05.246Z,41.16
2018-04-12T12:33:05.182Z,40.91
2018-04-12T12:34:05.108Z,40.89
2018-04-12T12:35:05.048Z,41.00
2018-04-12T12:36:04.983Z,40.81
2018-04-12T12:37:04.922Z,40.34
2018-04-12T12:38:04.860Z,39.57
2018-04-12T12:39:04.797Z,40.03
2018-04-12T12:40:04.721Z,39.78
2018-04-12T12:41:04.657Z,39.22
2018-04-12T12:42:04.598Z,38.06
2018-04-12T12:43:04.532Z,38.93
2018-04-12T12:44:04.459Z,38.44
2018-04-12T12:45:04.397Z,38.34
2018-04-12T12:46:04.333Z,37.66
2018-04-12T12:47:04.272Z,38.64
2018-04-12T12:48:04.208Z,38.44
2018-04-12T12:49:04.148Z,38.54
2018-04-12T12:50:04.076Z,37.78
2018-04-12T12:51:04.021Z,37.65